Terminal Aerodrome Forecast
Issued by NWS

Current Version | Previous Version | Text Only | Print | Product List | Glossary On
Versions: 1 2 3 4 5 6 7 8 9 10 11 12
000
FTUS44 KTSA 251725
TAFBVO
TAF
KBVO 251725Z 2518/2618 19010G21KT P6SM SCT250
     FM260100 18012G20KT P6SM VCTS SCT050CB BKN250
      TEMPO 2602/2605 VRB30G45KT 2SM TSRA OVC010CB
     FM260600 35012G18KT 4SM -SHRA BR OVC008
     FM261400 35012G20KT P6SM VCSH OVC008=

USA.gov is the U.S. government's official web portal to all federal, state and local government web resources and services.